Time;durP1;ratioP1;P1;durP2;ratioP2;P2;SDS_P1;SDS_P2;PMS_P1;PMS_P2;Temp;Humidity;BMP_temperature;BMP_pressure;BME280_temperature;BME280_humidity;BME280_pressure;Samples;Min_cycle;Max_cycle;Signal;HPM_P1;HPM_P2
2023/07/19 00:00:37;;;;;;;;;;;28.10;56.50;;;;;;4992036;28;88080;-54
2023/07/19 00:03:03;;;;;;;;;;;28.10;56.30;;;;;;4988523;28;87955;-55
2023/07/19 00:05:29;;;;;;;;;;;28.10;56.30;;;;;;4992379;28;89407;-53
2023/07/19 00:07:54;;;;;;;;;;;28.00;56.40;;;;;;4990697;28;87412;-52
2023/07/19 00:10:20;;;;;;;;;;;28.00;56.30;;;;;;4993307;28;86985;-51
2023/07/19 00:12:45;;;;;;;;;;;28.00;56.40;;;;;;4990335;28;86977;-54
2023/07/19 00:15:11;;;;;;;;;;;28.00;56.40;;;;;;4993532;28;88114;-52
2023/07/19 00:17:36;;;;;;;;;;;28.00;56.40;;;;;;4990796;28;87206;-55
2023/07/19 00:20:02;;;;;;;;;;;28.00;56.40;;;;;;4992467;28;87398;-54
2023/07/19 00:22:28;;;;;;;;;;;27.90;56.40;;;;;;4992891;28;87044;-57
2023/07/19 00:24:53;;;;;;;;;;;27.90;56.40;;;;;;4991268;28;87342;-56
2023/07/19 00:27:19;;;;;;;;;;;27.90;56.40;;;;;;4991212;28;89083;-51
2023/07/19 00:29:44;;;;;;;;;;;27.90;56.40;;;;;;4991270;28;87106;-49
2023/07/19 00:32:10;;;;;;;;;;;27.90;56.40;;;;;;4991534;28;87909;-55
2023/07/19 00:34:35;;;;;;;;;;;27.90;56.40;;;;;;4990912;28;87960;-52
2023/07/19 00:37:01;;;;;;;;;;;27.80;56.40;;;;;;4991019;28;87109;-54
2023/07/19 00:39:27;;;;;;;;;;;27.90;56.40;;;;;;4992534;28;88710;-55
2023/07/19 00:41:53;;;;;;;;;;;27.80;56.40;;;;;;4992623;28;87614;-51
2023/07/19 00:44:18;;;;;;;;;;;27.80;56.40;;;;;;4993657;28;88829;-51
2023/07/19 00:46:44;;;;;;;;;;;27.80;56.40;;;;;;4984115;28;91032;-50
2023/07/19 00:49:10;;;;;;;;;;;27.80;56.50;;;;;;4992577;28;87100;-54
2023/07/19 00:51:36;;;;;;;;;;;27.70;56.40;;;;;;4989349;28;89017;-50
2023/07/19 00:54:03;;;;;;;;;;;27.70;56.30;;;;;;4991992;28;89428;-55
2023/07/19 00:56:29;;;;;;;;;;;27.70;56.40;;;;;;4991470;28;87148;-49
2023/07/19 00:58:54;;;;;;;;;;;27.70;56.30;;;;;;4991515;28;87186;-52
2023/07/19 01:01:21;;;;;;;;;;;27.70;56.40;;;;;;4991532;28;87942;-53
2023/07/19 01:03:46;;;;;;;;;;;27.70;56.50;;;;;;4994335;28;87101;-53
2023/07/19 01:06:12;;;;;;;;;;;27.60;56.40;;;;;;4990454;28;87167;-55
2023/07/19 01:08:37;;;;;;;;;;;27.70;56.40;;;;;;4993169;28;86463;-52
2023/07/19 01:11:03;;;;;;;;;;;27.60;56.30;;;;;;4989839;28;87455;-51
2023/07/19 01:13:28;;;;;;;;;;;27.60;56.30;;;;;;4992615;28;87978;-53
2023/07/19 01:15:54;;;;;;;;;;;27.60;56.30;;;;;;4991306;28;88099;-52
2023/07/19 01:18:19;;;;;;;;;;;27.60;56.40;;;;;;4992025;28;87978;-52
2023/07/19 01:20:45;;;;;;;;;;;27.60;56.40;;;;;;4992110;28;87931;-54
2023/07/19 01:23:11;;;;;;;;;;;27.60;56.30;;;;;;4995170;28;87104;-52
2023/07/19 01:25:37;;;;;;;;;;;27.60;56.20;;;;;;4996640;28;87190;-53
2023/07/19 01:28:02;;;;;;;;;;;27.50;56.30;;;;;;4994871;28;87138;-53
2023/07/19 01:30:28;;;;;;;;;;;27.50;56.30;;;;;;4994309;28;87539;-53
2023/07/19 01:32:54;;;;;;;;;;;27.50;56.40;;;;;;4994054;28;87240;-53
2023/07/19 01:35:19;;;;;;;;;;;27.50;56.40;;;;;;4989803;28;87120;-50
2023/07/19 01:37:45;;;;;;;;;;;27.40;56.20;;;;;;4995490;28;87429;-53
2023/07/19 01:40:11;;;;;;;;;;;27.40;56.30;;;;;;4990553;28;90238;-54
2023/07/19 01:42:37;;;;;;;;;;;27.40;56.30;;;;;;4995835;28;87175;-52
2023/07/19 01:45:02;;;;;;;;;;;27.40;56.30;;;;;;4988818;28;87482;-51
2023/07/19 01:47:28;;;;;;;;;;;27.30;56.30;;;;;;4998428;28;87915;-55
2023/07/19 01:49:53;;;;;;;;;;;27.40;56.30;;;;;;4986285;28;87395;-53
2023/07/19 01:52:19;;;;;;;;;;;27.40;56.30;;;;;;4994328;28;87994;-51
2023/07/19 01:54:44;;;;;;;;;;;27.40;56.30;;;;;;4993616;28;87281;-52
2023/07/19 01:57:10;;;;;;;;;;;27.30;56.20;;;;;;4994992;28;87432;-48
2023/07/19 01:59:36;;;;;;;;;;;27.30;56.20;;;;;;4993675;28;88116;-49
2023/07/19 02:02:02;;;;;;;;;;;27.30;56.30;;;;;;4993951;28;87172;-54
2023/07/19 02:04:27;;;;;;;;;;;27.30;56.30;;;;;;4992400;28;88437;-54
2023/07/19 02:06:53;;;;;;;;;;;27.30;56.30;;;;;;4994333;28;88221;-53
2023/07/19 02:09:19;;;;;;;;;;;27.20;56.20;;;;;;4995071;28;89368;-51
2023/07/19 02:11:44;;;;;;;;;;;27.30;56.30;;;;;;4991780;28;87855;-50
2023/07/19 02:14:10;;;;;;;;;;;27.20;56.30;;;;;;4995663;28;87104;-53
2023/07/19 02:16:35;;;;;;;;;;;27.20;56.30;;;;;;4992202;28;87846;-52
2023/07/19 02:19:03;;;;;;;;;;;27.20;56.20;;;;;;4991729;28;88421;-55
2023/07/19 02:21:29;;;;;;;;;;;27.20;56.20;;;;;;4988258;28;86360;-54
2023/07/19 02:23:54;;;;;;;;;;;27.10;56.20;;;;;;4993837;28;87086;-49
2023/07/19 02:26:20;;;;;;;;;;;27.10;56.20;;;;;;4992580;28;89569;-50
2023/07/19 02:28:46;;;;;;;;;;;27.10;56.20;;;;;;4995483;28;88686;-56
2023/07/19 02:31:11;;;;;;;;;;;27.10;56.30;;;;;;4993352;28;89591;-52
2023/07/19 02:33:37;;;;;;;;;;;27.10;56.30;;;;;;4992716;28;87149;-51
2023/07/19 02:36:02;;;;;;;;;;;27.10;56.30;;;;;;4989045;28;90680;-53
2023/07/19 02:38:28;;;;;;;;;;;27.00;56.20;;;;;;4994434;28;88498;-57
2023/07/19 02:41:00;;;;;;;;;;;27.00;56.30;;;;;;4991565;28;87318;-55
2023/07/19 02:43:26;;;;;;;;;;;27.00;56.20;;;;;;4989103;28;87432;-50
2023/07/19 02:45:53;;;;;;;;;;;27.00;56.30;;;;;;4994129;28;87446;-55
2023/07/19 02:48:19;;;;;;;;;;;26.90;56.30;;;;;;4992652;28;87110;-53
2023/07/19 02:50:45;;;;;;;;;;;26.90;56.20;;;;;;4993843;28;88613;-53
2023/07/19 02:53:11;;;;;;;;;;;26.90;56.30;;;;;;4991861;28;88086;-54
2023/07/19 02:55:36;;;;;;;;;;;26.90;56.30;;;;;;4994056;28;88341;-54
2023/07/19 02:58:02;;;;;;;;;;;26.90;56.30;;;;;;4990055;28;91074;-53
2023/07/19 03:00:27;;;;;;;;;;;26.80;56.30;;;;;;4994399;28;87205;-53
2023/07/19 03:02:53;;;;;;;;;;;26.80;56.20;;;;;;4991258;28;87168;-53
2023/07/19 03:05:20;;;;;;;;;;;26.80;56.30;;;;;;4984561;28;89828;-52
2023/07/19 03:07:45;;;;;;;;;;;26.80;56.30;;;;;;4991187;28;87255;-51
2023/07/19 03:10:11;;;;;;;;;;;26.80;56.30;;;;;;4994851;28;87477;-55
2023/07/19 03:12:37;;;;;;;;;;;26.80;56.30;;;;;;4994696;28;87835;-50
2023/07/19 03:15:03;;;;;;;;;;;26.70;56.20;;;;;;4990170;28;87543;-54
2023/07/19 03:17:28;;;;;;;;;;;26.80;56.30;;;;;;4987123;28;88269;-53
2023/07/19 03:19:54;;;;;;;;;;;26.70;56.30;;;;;;4992670;28;87147;-52
2023/07/19 03:22:19;;;;;;;;;;;26.70;56.30;;;;;;4985662;28;87392;-57
2023/07/19 03:24:45;;;;;;;;;;;26.70;56.40;;;;;;4993172;28;87135;-51
2023/07/19 03:27:10;;;;;;;;;;;26.60;56.30;;;;;;4988622;28;87134;-55
2023/07/19 03:29:36;;;;;;;;;;;26.60;56.20;;;;;;4986464;28;88948;-54
2023/07/19 03:32:02;;;;;;;;;;;26.60;56.30;;;;;;4986779;28;89152;-54
2023/07/19 03:34:27;;;;;;;;;;;26.60;56.30;;;;;;4994279;28;87355;-56
2023/07/19 03:36:53;;;;;;;;;;;26.60;56.20;;;;;;4984839;28;90217;-48
2023/07/19 03:39:18;;;;;;;;;;;26.60;56.30;;;;;;4980272;28;88050;-51
2023/07/19 03:41:44;;;;;;;;;;;26.50;56.20;;;;;;4988027;28;88281;-52
2023/07/19 03:44:09;;;;;;;;;;;26.50;56.20;;;;;;4991470;28;88053;-53
2023/07/19 03:46:35;;;;;;;;;;;26.50;56.30;;;;;;4990964;28;87204;-55
2023/07/19 03:49:01;;;;;;;;;;;26.50;56.30;;;;;;4990206;28;88671;-48
2023/07/19 03:51:26;;;;;;;;;;;26.50;56.30;;;;;;4980941;28;88402;-53
2023/07/19 03:53:52;;;;;;;;;;;26.50;56.30;;;;;;4991831;28;87221;-52
2023/07/19 03:56:18;;;;;;;;;;;26.50;56.30;;;;;;4991871;28;87467;-55
2023/07/19 03:58:48;;;;;;;;;;;26.50;56.30;;;;;;4984869;28;86548;-56
2023/07/19 04:01:14;;;;;;;;;;;26.40;56.40;;;;;;4984578;28;87183;-53
2023/07/19 04:03:40;;;;;;;;;;;26.40;56.30;;;;;;4993515;28;88322;-54
2023/07/19 04:06:06;;;;;;;;;;;26.40;56.40;;;;;;4983873;28;88553;-49
2023/07/19 04:08:33;;;;;;;;;;;26.40;56.40;;;;;;4985732;28;88459;-54
2023/07/19 04:10:58;;;;;;;;;;;26.40;56.30;;;;;;4985797;28;88014;-51
2023/07/19 04:13:26;;;;;;;;;;;26.30;56.30;;;;;;4992293;28;87165;-54
2023/07/19 04:15:51;;;;;;;;;;;26.30;56.30;;;;;;4992814;28;87585;-51
2023/07/19 04:18:17;;;;;;;;;;;26.30;56.20;;;;;;4991652;28;87831;-53
2023/07/19 04:20:42;;;;;;;;;;;26.30;56.40;;;;;;4980869;28;89086;-57
2023/07/19 04:23:08;;;;;;;;;;;26.30;56.40;;;;;;4989834;28;87516;-52
2023/07/19 04:25:33;;;;;;;;;;;26.30;56.40;;;;;;4986530;28;89009;-53
2023/07/19 04:27:59;;;;;;;;;;;26.30;56.40;;;;;;4990279;28;87841;-50
2023/07/19 04:30:24;;;;;;;;;;;26.30;56.50;;;;;;4988723;28;88554;-49
2023/07/19 04:32:55;;;;;;;;;;;26.30;56.50;;;;;;4993258;28;87169;-51
2023/07/19 04:35:22;;;;;;;;;;;26.20;56.40;;;;;;4978194;28;87376;-55
2023/07/19 04:37:48;;;;;;;;;;;26.30;56.50;;;;;;4984183;28;87296;-54
2023/07/19 04:40:13;;;;;;;;;;;26.30;56.50;;;;;;4988014;28;87755;-51
2023/07/19 04:42:39;;;;;;;;;;;26.30;56.40;;;;;;4990881;28;88154;-54
2023/07/19 04:45:04;;;;;;;;;;;26.20;56.40;;;;;;4989881;28;87868;-49
2023/07/19 04:47:30;;;;;;;;;;;26.20;56.40;;;;;;4990532;28;86801;-57
2023/07/19 04:49:55;;;;;;;;;;;26.20;56.50;;;;;;4991895;28;87864;-51
2023/07/19 04:52:21;;;;;;;;;;;26.20;56.40;;;;;;4992698;28;87169;-57
2023/07/19 04:54:48;;;;;;;;;;;26.20;56.50;;;;;;4989952;28;88657;-51
2023/07/19 04:57:15;;;;;;;;;;;26.20;56.40;;;;;;4986746;28;88357;-50
2023/07/19 04:59:40;;;;;;;;;;;26.20;56.50;;;;;;4995350;28;87290;-55
2023/07/19 05:02:07;;;;;;;;;;;26.20;56.50;;;;;;4993530;28;87844;-50
2023/07/19 05:04:33;;;;;;;;;;;26.20;56.50;;;;;;4993345;28;87565;-55
2023/07/19 05:06:58;;;;;;;;;;;26.20;56.50;;;;;;4982810;28;89088;-51
2023/07/19 05:09:24;;;;;;;;;;;26.10;56.40;;;;;;4995630;28;87253;-52
2023/07/19 05:11:49;;;;;;;;;;;26.10;56.60;;;;;;4995187;28;86496;-50
2023/07/19 05:14:15;;;;;;;;;;;26.00;56.60;;;;;;4988873;28;87210;-56
2023/07/19 05:16:41;;;;;;;;;;;26.10;56.70;;;;;;4975962;28;88140;-53
2023/07/19 05:19:06;;;;;;;;;;;26.10;56.60;;;;;;4992505;28;88129;-55
2023/07/19 05:21:32;;;;;;;;;;;26.10;56.60;;;;;;4993005;28;91500;-55
2023/07/19 05:23:57;;;;;;;;;;;26.10;56.60;;;;;;4991967;28;87653;-56
2023/07/19 05:26:24;;;;;;;;;;;26.10;56.70;;;;;;4984187;28;88868;-56
2023/07/19 05:28:49;;;;;;;;;;;26.10;56.80;;;;;;4994876;28;87959;-53
2023/07/19 05:31:15;;;;;;;;;;;26.10;56.70;;;;;;4995355;28;87363;-50
2023/07/19 05:33:40;;;;;;;;;;;26.10;56.80;;;;;;4987801;28;88250;-53
2023/07/19 05:36:06;;;;;;;;;;;26.10;56.90;;;;;;4991453;28;87354;-55
2023/07/19 05:38:32;;;;;;;;;;;26.10;56.80;;;;;;4993408;28;87092;-53
2023/07/19 05:41:03;;;;;;;;;;;26.10;56.90;;;;;;4994235;28;88315;-55
2023/07/19 05:43:29;;;;;;;;;;;26.00;56.80;;;;;;4987897;28;89884;-54
2023/07/19 05:46:08;;;;;;;;;;;26.10;56.90;;;;;;4987149;28;88347;-56
2023/07/19 05:48:33;;;;;;;;;;;26.00;56.90;;;;;;4994505;28;87945;-53
2023/07/19 05:50:59;;;;;;;;;;;26.00;57.10;;;;;;4988491;28;87083;-56
2023/07/19 05:53:25;;;;;;;;;;;26.00;57.00;;;;;;4983885;28;87342;-51
2023/07/19 05:55:52;;;;;;;;;;;26.00;57.10;;;;;;4991341;28;89163;-54
2023/07/19 05:58:18;;;;;;;;;;;26.00;57.00;;;;;;4992487;28;87690;-53
2023/07/19 06:00:44;;;;;;;;;;;26.00;57.10;;;;;;4987827;28;87697;-53
2023/07/19 06:03:10;;;;;;;;;;;26.00;57.10;;;;;;4983739;28;89214;-53
2023/07/19 06:05:35;;;;;;;;;;;26.00;57.30;;;;;;4995875;28;87702;-51
2023/07/19 06:08:01;;;;;;;;;;;26.00;57.20;;;;;;4992224;28;88131;-56
2023/07/19 06:10:26;;;;;;;;;;;26.00;57.30;;;;;;4984577;28;88075;-49
2023/07/19 06:12:52;;;;;;;;;;;26.00;57.40;;;;;;4989650;28;87815;-50
2023/07/19 06:15:17;;;;;;;;;;;26.00;57.30;;;;;;4992103;28;87135;-54
2023/07/19 06:17:43;;;;;;;;;;;26.00;57.30;;;;;;4994801;28;87363;-51
2023/07/19 06:20:12;;;;;;;;;;;26.00;57.40;;;;;;4986015;28;87865;-53
2023/07/19 06:22:38;;;;;;;;;;;26.00;57.40;;;;;;4983007;28;90031;-56
2023/07/19 06:25:04;;;;;;;;;;;26.10;57.40;;;;;;4995327;28;86337;-51
2023/07/19 06:27:29;;;;;;;;;;;26.00;57.40;;;;;;4991499;28;87980;-54
2023/07/19 06:29:55;;;;;;;;;;;26.00;57.90;;;;;;4984657;28;87325;-53
2023/07/19 06:32:20;;;;;;;;;;;26.00;57.50;;;;;;4987847;28;88110;-53
2023/07/19 06:34:46;;;;;;;;;;;26.00;57.60;;;;;;4992526;28;89810;-54
2023/07/19 06:37:12;;;;;;;;;;;26.00;57.60;;;;;;4989427;28;87175;-56
2023/07/19 06:39:37;;;;;;;;;;;26.00;57.50;;;;;;4979253;28;88473;-52
2023/07/19 06:42:04;;;;;;;;;;;26.00;57.60;;;;;;4988306;28;88972;-52
2023/07/19 06:44:29;;;;;;;;;;;26.00;57.60;;;;;;4993986;28;87120;-53
2023/07/19 06:46:55;;;;;;;;;;;26.00;57.70;;;;;;4987056;28;87715;-56
2023/07/19 06:49:20;;;;;;;;;;;26.00;57.70;;;;;;4989001;28;86521;-51
2023/07/19 06:51:46;;;;;;;;;;;26.00;57.80;;;;;;4993452;28;87553;-55
2023/07/19 06:54:11;;;;;;;;;;;26.00;58.30;;;;;;4990620;28;88004;-51
2023/07/19 06:56:37;;;;;;;;;;;26.10;57.70;;;;;;4984685;28;88614;-57
2023/07/19 06:59:02;;;;;;;;;;;26.00;57.70;;;;;;4982575;28;89560;-53
2023/07/19 07:01:28;;;;;;;;;;;26.00;57.80;;;;;;4991651;28;88002;-53
2023/07/19 07:03:53;;;;;;;;;;;26.00;57.80;;;;;;4992436;28;87125;-53
2023/07/19 07:06:19;;;;;;;;;;;26.00;57.70;;;;;;4986683;28;87617;-51
2023/07/19 07:08:44;;;;;;;;;;;26.10;57.80;;;;;;4976010;28;87704;-52
2023/07/19 07:11:10;;;;;;;;;;;26.00;57.80;;;;;;4992983;28;87597;-55
2023/07/19 07:13:35;;;;;;;;;;;26.00;57.80;;;;;;4989736;28;87462;-50
2023/07/19 07:16:01;;;;;;;;;;;26.10;57.90;;;;;;4983219;28;87645;-51
2023/07/19 07:18:27;;;;;;;;;;;26.00;57.90;;;;;;4983770;28;88866;-57
2023/07/19 07:20:52;;;;;;;;;;;26.00;57.80;;;;;;4992790;28;88948;-51
2023/07/19 07:23:18;;;;;;;;;;;26.10;57.90;;;;;;4988408;28;87244;-51
2023/07/19 07:25:43;;;;;;;;;;;26.00;57.80;;;;;;4985521;28;87564;-51
2023/07/19 07:28:09;;;;;;;;;;;26.00;57.80;;;;;;4982312;28;89810;-51
2023/07/19 07:30:36;;;;;;;;;;;26.10;58.00;;;;;;4996734;28;87024;-52
2023/07/19 07:33:01;;;;;;;;;;;26.00;57.90;;;;;;4990580;28;89837;-53
2023/07/19 07:35:27;;;;;;;;;;;26.00;58.00;;;;;;4986160;28;87293;-51
2023/07/19 07:37:53;;;;;;;;;;;26.10;58.00;;;;;;4980430;28;88268;-51
2023/07/19 07:40:18;;;;;;;;;;;26.00;57.90;;;;;;4992201;28;89433;-53
2023/07/19 07:42:44;;;;;;;;;;;26.00;57.90;;;;;;4990590;28;87156;-52
2023/07/19 07:45:09;;;;;;;;;;;26.10;58.00;;;;;;4979554;28;88213;-54
2023/07/19 07:47:36;;;;;;;;;;;26.10;58.00;;;;;;4989662;28;88229;-54
2023/07/19 07:50:03;;;;;;;;;;;26.00;58.00;;;;;;4990588;28;87190;-51
2023/07/19 07:52:29;;;;;;;;;;;26.10;58.10;;;;;;4992475;28;87479;-53
2023/07/19 07:54:54;;;;;;;;;;;26.00;58.10;;;;;;4979478;28;87273;-50
2023/07/19 07:57:20;;;;;;;;;;;26.00;58.10;;;;;;4986857;28;87479;-54
2023/07/19 07:59:48;;;;;;;;;;;26.10;58.10;;;;;;4991413;28;88464;-52
2023/07/19 08:02:14;;;;;;;;;;;26.00;58.00;;;;;;4989130;28;86396;-51
2023/07/19 08:04:39;;;;;;;;;;;26.10;58.20;;;;;;4982857;28;87383;-53
2023/07/19 08:07:05;;;;;;;;;;;26.00;58.10;;;;;;4984966;28;89457;-51
2023/07/19 08:09:32;;;;;;;;;;;26.00;58.10;;;;;;4989401;28;88746;-54
2023/07/19 08:11:58;;;;;;;;;;;26.10;58.20;;;;;;4993070;28;87774;-50
2023/07/19 08:14:23;;;;;;;;;;;26.10;58.20;;;;;;4982579;28;88160;-55
2023/07/19 08:16:51;;;;;;;;;;;26.10;58.20;;;;;;4990817;28;87606;-56
2023/07/19 08:19:17;;;;;;;;;;;26.10;58.20;;;;;;4985443;28;89505;-53
2023/07/19 08:21:42;;;;;;;;;;;26.10;58.20;;;;;;4982523;28;87180;-53
2023/07/19 08:24:07;;;;;;;;;;;26.10;58.20;;;;;;4985019;28;87525;-50
2023/07/19 08:26:33;;;;;;;;;;;26.10;58.20;;;;;;4990101;28;86683;-54
2023/07/19 08:28:59;;;;;;;;;;;26.10;58.20;;;;;;4991518;28;87147;-55
2023/07/19 08:31:24;;;;;;;;;;;26.10;58.10;;;;;;4976907;28;87361;-54
2023/07/19 08:33:49;;;;;;;;;;;26.10;58.10;;;;;;4986045;28;89000;-55
2023/07/19 08:36:15;;;;;;;;;;;26.10;58.10;;;;;;4990036;28;89124;-53
2023/07/19 08:38:41;;;;;;;;;;;26.10;58.10;;;;;;4991034;28;87992;-52
2023/07/19 08:41:06;;;;;;;;;;;26.20;58.10;;;;;;4978443;28;87147;-54
2023/07/19 08:43:35;;;;;;;;;;;26.20;58.20;;;;;;4978836;28;88860;-50
2023/07/19 08:46:01;;;;;;;;;;;26.10;58.00;;;;;;4993478;28;88136;-51
2023/07/19 08:48:26;;;;;;;;;;;26.10;58.10;;;;;;4989699;28;87613;-55
2023/07/19 08:50:56;;;;;;;;;;;26.10;58.10;;;;;;4980612;28;87378;-55
2023/07/19 08:53:22;;;;;;;;;;;26.10;58.10;;;;;;4980078;28;89442;-54
2023/07/19 08:55:47;;;;;;;;;;;26.20;58.20;;;;;;4994558;28;87120;-55
2023/07/19 08:58:13;;;;;;;;;;;26.20;58.10;;;;;;4986482;28;89019;-50
2023/07/19 09:00:38;;;;;;;;;;;26.20;58.10;;;;;;4981587;28;87083;-55
2023/07/19 09:03:04;;;;;;;;;;;26.20;58.10;;;;;;4983820;28;87673;-53
2023/07/19 09:05:30;;;;;;;;;;;26.20;58.10;;;;;;4990568;28;87212;-52
2023/07/19 09:07:59;;;;;;;;;;;26.20;58.10;;;;;;4989442;28;87056;-53
2023/07/19 09:10:25;;;;;;;;;;;26.20;58.00;;;;;;4984639;28;88311;-49
2023/07/19 09:12:51;;;;;;;;;;;26.20;58.00;;;;;;4989867;28;88029;-55
2023/07/19 09:15:16;;;;;;;;;;;26.20;58.00;;;;;;4990603;28;86373;-52
2023/07/19 09:17:45;;;;;;;;;;;26.30;58.10;;;;;;4988174;28;88226;-53
2023/07/19 09:20:12;;;;;;;;;;;26.30;58.10;;;;;;4972232;28;87251;-55
2023/07/19 09:22:38;;;;;;;;;;;26.30;58.10;;;;;;4985663;28;88024;-53
2023/07/19 09:25:05;;;;;;;;;;;26.30;58.10;;;;;;4989065;28;87959;-54
2023/07/19 09:27:32;;;;;;;;;;;26.30;58.10;;;;;;4989034;28;87547;-55
2023/07/19 09:29:57;;;;;;;;;;;26.30;58.10;;;;;;4989418;28;87337;-56
2023/07/19 09:32:24;;;;;;;;;;;26.30;58.10;;;;;;4992250;28;89886;-51
2023/07/19 09:34:54;;;;;;;;;;;26.30;58.10;;;;;;4989569;28;87124;-53
2023/07/19 09:37:21;;;;;;;;;;;26.30;58.10;;;;;;4994028;28;87548;-50
2023/07/19 09:39:46;;;;;;;;;;;26.30;58.00;;;;;;4994857;28;87395;-52
2023/07/19 09:42:13;;;;;;;;;;;26.40;58.10;;;;;;4992029;28;87020;-52
2023/07/19 09:44:39;;;;;;;;;;;26.40;58.20;;;;;;4994730;28;89072;-53
2023/07/19 09:47:10;;;;;;;;;;;26.40;58.10;;;;;;4992173;28;88377;-54
2023/07/19 09:49:38;;;;;;;;;;;26.40;58.10;;;;;;4988807;28;88319;-52
2023/07/19 09:52:04;;;;;;;;;;;26.40;58.10;;;;;;4995202;28;87826;-53
2023/07/19 09:54:32;;;;;;;;;;;26.40;58.10;;;;;;4992933;28;87027;-54
2023/07/19 09:56:58;;;;;;;;;;;26.50;58.20;;;;;;4992260;28;87211;-53
2023/07/19 09:59:27;;;;;;;;;;;26.50;58.20;;;;;;4993876;28;88400;-54
2023/07/19 10:01:52;;;;;;;;;;;26.50;58.20;;;;;;4995935;28;87112;-51
2023/07/19 10:04:25;;;;;;;;;;;26.50;58.20;;;;;;4995483;28;87095;-56
2023/07/19 10:07:11;;;;;;;;;;;26.50;58.20;;;;;;4989268;28;87039;-50
2023/07/19 10:09:38;;;;;;;;;;;26.50;58.20;;;;;;4990106;28;90353;-57
2023/07/19 10:12:08;;;;;;;;;;;26.50;58.80;;;;;;4986673;28;89961;-54
2023/07/19 10:14:34;;;;;;;;;;;26.60;58.20;;;;;;4992722;28;87633;-56
2023/07/19 10:17:00;;;;;;;;;;;26.50;58.10;;;;;;4993902;28;89114;-50
2023/07/19 10:19:26;;;;;;;;;;;26.50;58.10;;;;;;4993300;28;88796;-54
2023/07/19 10:22:02;;;;;;;;;;;26.60;58.10;;;;;;4994136;28;87230;-56
2023/07/19 10:24:28;;;;;;;;;;;26.60;58.20;;;;;;4990282;28;89336;-55
2023/07/19 10:26:54;;;;;;;;;;;26.60;58.10;;;;;;4990767;28;87890;-57
2023/07/19 10:29:22;;;;;;;;;;;26.60;58.10;;;;;;4994872;28;86505;-55
2023/07/19 10:31:48;;;;;;;;;;;26.60;58.10;;;;;;4992287;28;88207;-52
2023/07/19 10:34:13;;;;;;;;;;;26.70;58.10;;;;;;4993577;28;87130;-56
2023/07/19 10:36:46;;;;;;;;;;;26.70;58.10;;;;;;4992472;28;87974;-54
2023/07/19 10:39:11;;;;;;;;;;;26.70;58.10;;;;;;4991210;28;87528;-52
2023/07/19 10:41:37;;;;;;;;;;;26.70;58.10;;;;;;4994567;28;87300;-52
2023/07/19 10:44:02;;;;;;;;;;;26.70;58.10;;;;;;4994209;28;88663;-56
2023/07/19 10:46:29;;;;;;;;;;;26.80;58.10;;;;;;4991458;28;87085;-54
2023/07/19 10:48:54;;;;;;;;;;;26.80;58.10;;;;;;4994229;28;87318;-54
2023/07/19 10:51:20;;;;;;;;;;;26.80;58.00;;;;;;4992009;28;88028;-54
2023/07/19 10:53:58;;;;;;;;;;;26.80;58.10;;;;;;4994128;28;86339;-50
2023/07/19 10:56:23;;;;;;;;;;;26.80;58.10;;;;;;4990521;28;88309;-49
2023/07/19 10:58:49;;;;;;;;;;;26.90;58.10;;;;;;4993018;28;88098;-50
2023/07/19 11:01:17;;;;;;;;;;;26.90;58.10;;;;;;4990640;28;88061;-53
2023/07/19 11:03:47;;;;;;;;;;;26.80;58.00;;;;;;4994201;28;88409;-57
2023/07/19 11:06:12;;;;;;;;;;;26.90;58.00;;;;;;4995041;28;87932;-52
2023/07/19 11:08:38;;;;;;;;;;;26.90;58.10;;;;;;4993120;28;87447;-53
2023/07/19 11:11:04;;;;;;;;;;;26.90;58.00;;;;;;4987663;28;88040;-57
2023/07/19 11:13:30;;;;;;;;;;;27.00;58.10;;;;;;4989457;28;87133;-51
2023/07/19 11:15:57;;;;;;;;;;;26.90;58.00;;;;;;4993712;28;87408;-54
2023/07/19 11:18:29;;;;;;;;;;;26.90;58.00;;;;;;4991041;28;87253;-53
2023/07/19 11:20:57;;;;;;;;;;;27.00;58.00;;;;;;4987241;28;87755;-53
2023/07/19 11:23:23;;;;;;;;;;;27.00;58.00;;;;;;4993148;28;87024;-53
2023/07/19 11:25:49;;;;;;;;;;;27.00;57.90;;;;;;4989699;28;90166;-57
2023/07/19 11:28:32;;;;;;;;;;;27.00;57.90;;;;;;4994884;28;87181;-55
2023/07/19 11:30:57;;;;;;;;;;;27.00;57.80;;;;;;4987403;28;88005;-52
2023/07/19 11:33:26;;;;;;;;;;;27.10;57.90;;;;;;4993342;28;87119;-51
2023/07/19 11:35:52;;;;;;;;;;;27.10;57.80;;;;;;4992033;28;87268;-54
2023/07/19 11:38:18;;;;;;;;;;;27.10;57.90;;;;;;4991542;28;88554;-51
2023/07/19 11:40:43;;;;;;;;;;;27.10;57.30;;;;;;4989547;28;87222;-51
2023/07/19 11:43:09;;;;;;;;;;;27.20;57.90;;;;;;4992267;28;87621;-52
2023/07/19 11:45:34;;;;;;;;;;;27.20;57.80;;;;;;4990708;28;88044;-52
2023/07/19 11:48:03;;;;;;;;;;;27.20;57.80;;;;;;4993512;28;87105;-51
2023/07/19 11:50:29;;;;;;;;;;;27.20;57.80;;;;;;4991614;28;88018;-54
2023/07/19 11:52:56;;;;;;;;;;;27.20;57.80;;;;;;4993369;28;87132;-51
2023/07/19 11:55:22;;;;;;;;;;;27.30;57.80;;;;;;4989289;28;87274;-54
2023/07/19 11:57:48;;;;;;;;;;;27.30;58.40;;;;;;4990880;28;91129;-53
2023/07/19 12:00:15;;;;;;;;;;;27.30;57.70;;;;;;4990241;28;87264;-55
2023/07/19 12:02:43;;;;;;;;;;;27.30;57.70;;;;;;4992244;28;87456;-54
2023/07/19 12:05:09;;;;;;;;;;;27.30;57.60;;;;;;4992265;28;89178;-54
2023/07/19 12:07:35;;;;;;;;;;;27.30;57.60;;;;;;4991257;28;86391;-49
2023/07/19 12:10:02;;;;;;;;;;;27.30;58.00;;;;;;4989683;28;87301;-54
2023/07/19 12:12:28;;;;;;;;;;;27.40;57.60;;;;;;4996304;28;87737;-54
2023/07/19 12:14:53;;;;;;;;;;;27.40;57.60;;;;;;4989452;28;88114;-52
2023/07/19 12:17:19;;;;;;;;;;;27.40;57.50;;;;;;4990273;28;88158;-52
2023/07/19 12:19:44;;;;;;;;;;;27.40;57.50;;;;;;4992552;28;87161;-54
2023/07/19 12:22:10;;;;;;;;;;;27.40;57.50;;;;;;4991162;28;87390;-55
2023/07/19 12:24:35;;;;;;;;;;;27.40;57.40;;;;;;4991828;28;88183;-52
2023/07/19 12:27:01;;;;;;;;;;;27.40;57.40;;;;;;4989750;28;87128;-54
2023/07/19 12:29:27;;;;;;;;;;;27.50;57.40;;;;;;4988818;28;87374;-51
2023/07/19 12:31:52;;;;;;;;;;;27.50;57.40;;;;;;4995005;28;87611;-53
2023/07/19 12:34:20;;;;;;;;;;;27.50;57.40;;;;;;4990815;28;87078;-56
2023/07/19 12:36:47;;;;;;;;;;;27.50;57.60;;;;;;4992586;28;89991;-57
2023/07/19 12:39:13;;;;;;;;;;;27.60;57.40;;;;;;4989107;28;88333;-55
2023/07/19 12:41:39;;;;;;;;;;;27.60;57.40;;;;;;4994763;28;90143;-57
2023/07/19 12:44:06;;;;;;;;;;;27.60;57.90;;;;;;4988250;28;88057;-55
2023/07/19 12:46:32;;;;;;;;;;;27.60;57.30;;;;;;4992007;28;87165;-54
2023/07/19 12:48:57;;;;;;;;;;;27.70;57.40;;;;;;4990879;28;87016;-55
2023/07/19 12:51:23;;;;;;;;;;;27.60;57.30;;;;;;4991527;28;88177;-51
2023/07/19 12:53:49;;;;;;;;;;;27.70;57.30;;;;;;4994454;28;87188;-56
2023/07/19 12:56:15;;;;;;;;;;;27.70;57.30;;;;;;4990335;28;88530;-57
2023/07/19 12:58:41;;;;;;;;;;;27.70;57.30;;;;;;4990939;28;87195;-53
2023/07/19 13:01:06;;;;;;;;;;;27.70;57.30;;;;;;4989315;28;87775;-54
2023/07/19 13:03:32;;;;;;;;;;;27.80;57.50;;;;;;4991704;28;88987;-52
2023/07/19 13:05:57;;;;;;;;;;;27.80;57.40;;;;;;4989507;28;87229;-55
2023/07/19 13:08:23;;;;;;;;;;;27.80;57.30;;;;;;4985890;28;87006;-53
2023/07/19 13:10:48;;;;;;;;;;;27.80;57.30;;;;;;4989932;28;88025;-52
2023/07/19 13:13:15;;;;;;;;;;;27.80;57.30;;;;;;4996036;28;87842;-54
2023/07/19 13:15:41;;;;;;;;;;;27.90;57.40;;;;;;4994532;28;88696;-49
2023/07/19 13:18:07;;;;;;;;;;;27.90;57.30;;;;;;4994052;28;87017;-51
2023/07/19 13:20:32;;;;;;;;;;;27.90;57.20;;;;;;4994442;28;87452;-55
2023/07/19 13:22:58;;;;;;;;;;;28.00;57.40;;;;;;4994507;28;87954;-55
2023/07/19 13:25:23;;;;;;;;;;;28.00;57.30;;;;;;4993931;28;87277;-54
2023/07/19 13:27:49;;;;;;;;;;;28.00;57.30;;;;;;4994160;28;88526;-55
2023/07/19 13:30:15;;;;;;;;;;;28.00;57.30;;;;;;4991972;28;87992;-53
2023/07/19 13:32:41;;;;;;;;;;;28.10;57.40;;;;;;4995109;28;87439;-52
2023/07/19 13:35:07;;;;;;;;;;;28.10;57.40;;;;;;4992365;28;87291;-52
2023/07/19 13:37:33;;;;;;;;;;;28.10;57.30;;;;;;4998675;28;87982;-56
2023/07/19 13:39:59;;;;;;;;;;;28.20;57.40;;;;;;4992896;28;88687;-52
2023/07/19 13:42:25;;;;;;;;;;;28.20;57.30;;;;;;4992323;28;89297;-50
2023/07/19 13:44:51;;;;;;;;;;;28.30;57.40;;;;;;4994833;28;86539;-52
2023/07/19 13:47:17;;;;;;;;;;;28.30;57.30;;;;;;4994250;28;87938;-56
2023/07/19 13:49:43;;;;;;;;;;;28.30;57.40;;;;;;4993447;28;89392;-51
2023/07/19 13:52:08;;;;;;;;;;;28.30;57.30;;;;;;4992842;28;88356;-54
2023/07/19 13:54:35;;;;;;;;;;;28.40;57.30;;;;;;4994724;28;88327;-50
2023/07/19 13:57:00;;;;;;;;;;;28.40;57.30;;;;;;4992194;28;87861;-55
2023/07/19 13:59:26;;;;;;;;;;;28.40;57.40;;;;;;4998139;28;87324;-55
2023/07/19 14:01:51;;;;;;;;;;;28.50;57.30;;;;;;4992397;28;88062;-54
2023/07/19 14:04:17;;;;;;;;;;;28.40;57.10;;;;;;4995810;28;87419;-52
2023/07/19 14:06:43;;;;;;;;;;;28.50;57.10;;;;;;4992370;28;88613;-55
2023/07/19 14:09:08;;;;;;;;;;;28.50;57.10;;;;;;4995136;28;87911;-55